createdAt,value
2023-03-20T01:51:18.642Z,791.00
2023-03-20T02:01:18.529Z,797.00
2023-03-20T02:02:18.515Z,796.00
2023-03-20T02:03:19.137Z,796.00
2023-03-20T02:04:18.650Z,794.00
2023-03-20T02:05:18.722Z,794.00
2023-03-20T02:06:18.777Z,793.00
2023-03-20T02:07:18.913Z,795.00
2023-03-20T02:08:18.909Z,796.00
2023-03-20T02:09:18.988Z,796.00
2023-03-20T02:10:19.047Z,795.00
2023-03-20T02:11:19.098Z,795.00
2023-03-20T02:12:19.182Z,796.00
2023-03-20T02:13:19.235Z,800.00
2023-03-20T02:14:19.291Z,801.00
2023-03-20T02:15:19.343Z,801.00
2023-03-20T02:16:19.449Z,801.00
2023-03-20T02:17:19.527Z,801.00
2023-03-20T02:18:19.527Z,801.00
2023-03-20T02:19:19.592Z,800.00
2023-03-20T02:20:19.649Z,800.00
2023-03-20T02:21:19.712Z,801.00
2023-03-20T02:22:19.778Z,798.00
2023-03-20T02:23:19.849Z,797.00
2023-03-20T02:24:19.906Z,797.00
2023-03-20T02:25:19.982Z,793.00
2023-03-20T02:26:20.038Z,795.00
2023-03-20T02:27:20.168Z,798.00
2023-03-20T02:28:20.170Z,796.00
2023-03-20T02:29:20.238Z,795.00
2023-03-20T02:30:20.315Z,792.00
2023-03-20T02:31:20.408Z,790.00
2023-03-20T02:32:20.434Z,793.00
2023-03-20T02:33:20.495Z,792.00
2023-03-20T02:34:20.561Z,795.00
2023-03-20T02:35:20.623Z,794.00
2023-03-20T02:36:20.718Z,795.00
2023-03-20T02:37:20.754Z,794.00
2023-03-20T02:38:20.822Z,794.00
2023-03-20T02:39:20.879Z,795.00
2023-03-20T02:40:21.018Z,796.00
2023-03-20T02:41:21.028Z,798.00
2023-03-20T02:42:21.060Z,804.00
2023-03-20T02:43:21.099Z,801.00
2023-03-20T02:44:21.159Z,801.00
2023-03-20T02:45:21.252Z,800.00
2023-03-20T02:46:21.352Z,798.00
2023-03-20T02:47:21.333Z,795.00
2023-03-20T02:48:21.396Z,797.00
2023-03-20T02:50:21.522Z,791.00
2023-03-20T02:51:21.582Z,789.00
2023-03-20T02:52:21.648Z,788.00
2023-03-20T02:53:21.707Z,789.00
2023-03-20T02:54:21.821Z,789.00
2023-03-20T02:55:21.839Z,792.00
2023-03-20T02:56:21.890Z,792.00
2023-03-20T04:41:28.394Z,762.00
2023-03-20T04:42:29.199Z,760.00
2023-03-20T04:43:28.545Z,764.00
2023-03-20T04:44:28.566Z,766.00
2023-03-20T04:45:28.614Z,763.00
2023-03-20T04:46:28.729Z,768.00
2023-03-20T04:47:28.720Z,770.00
2023-03-20T04:48:28.777Z,770.00
2023-03-20T04:49:28.909Z,767.00
2023-03-20T04:50:28.901Z,766.00
2023-03-20T04:51:28.950Z,765.00
2023-03-20T04:52:29.069Z,761.00
2023-03-20T04:53:29.066Z,760.00
2023-03-20T04:54:29.127Z,759.00
2023-03-20T04:55:29.177Z,759.00
2023-03-20T04:56:29.222Z,760.00
2023-03-20T04:57:29.283Z,759.00
2023-03-20T04:58:29.337Z,758.00
2023-03-20T04:59:29.396Z,760.00
2023-03-20T05:00:29.451Z,764.00
2023-03-20T05:01:29.539Z,764.00
2023-03-20T05:02:29.564Z,765.00
2023-03-20T05:03:29.618Z,763.00
2023-03-20T05:04:29.768Z,764.00
2023-03-20T08:32:38.456Z,737.00
2023-03-20T08:33:38.441Z,738.00
2023-03-20T08:34:38.488Z,737.00
2023-03-20T08:35:38.622Z,736.00
2023-03-20T08:36:38.519Z,733.00
2023-03-20T08:37:38.554Z,735.00
2023-03-20T08:38:38.583Z,735.00
2023-03-20T08:39:38.653Z,732.00
2023-03-20T08:40:38.630Z,730.00
2023-03-20T08:41:38.654Z,727.00
2023-03-20T08:42:38.684Z,728.00
2023-03-20T08:51:38.892Z,732.00
2023-03-20T08:52:38.926Z,734.00
2023-03-20T08:53:38.996Z,733.00
2023-03-20T08:54:38.971Z,732.00
2023-03-20T08:55:39.034Z,733.00
2023-03-20T08:56:39.053Z,732.00
2023-03-20T08:57:39.028Z,731.00
2023-03-20T08:58:39.029Z,733.00
2023-03-20T08:59:39.052Z,729.00
2023-03-20T09:00:39.073Z,728.00
2023-03-20T09:01:49.390Z,726.00
2023-03-20T09:03:39.098Z,726.00
2023-03-20T09:04:39.086Z,726.00
2023-03-20T09:05:39.788Z,727.00
2023-03-20T09:06:39.088Z,725.00
2023-03-20T09:07:39.089Z,724.00
2023-03-20T09:08:39.082Z,726.00
2023-03-20T09:09:39.081Z,728.00
2023-03-20T09:10:39.155Z,729.00
2023-03-20T09:11:39.077Z,731.00
2023-03-20T09:12:39.089Z,730.00
2023-03-20T09:13:39.085Z,731.00
2023-03-20T09:14:39.075Z,731.00
2023-03-20T09:15:39.322Z,728.00
2023-03-20T09:16:39.092Z,726.00
2023-03-20T09:17:39.080Z,723.00
2023-03-20T09:18:39.079Z,723.00
2023-03-20T09:19:39.155Z,727.00
2023-03-20T09:20:39.061Z,728.00
2023-03-20T09:21:39.133Z,726.00
2023-03-20T09:22:39.057Z,725.00
2023-03-20T09:23:39.053Z,727.00
2023-03-20T09:24:39.041Z,728.00
2023-03-20T09:25:39.040Z,727.00
2023-03-20T09:26:39.041Z,726.00
2023-03-20T09:27:39.055Z,729.00
2023-03-20T09:28:39.028Z,728.00
2023-03-20T09:29:39.037Z,728.00
2023-03-20T09:30:39.326Z,727.00
2023-03-20T09:31:39.015Z,724.00
2023-03-20T09:32:39.038Z,724.00
2023-03-20T09:33:39.013Z,725.00
2023-03-20T09:34:39.807Z,725.00
2023-03-20T09:35:39.315Z,727.00
2023-03-20T09:36:39.027Z,728.00
2023-03-20T09:37:39.042Z,725.00
2023-03-20T09:38:39.836Z,725.00
2023-03-20T09:39:39.084Z,727.00
2023-03-20T09:40:39.801Z,727.00
2023-03-20T09:41:53.267Z,727.00
2023-03-20T09:42:40.165Z,724.00
2023-03-20T09:43:39.072Z,723.00
2023-03-20T09:44:39.102Z,720.00
2023-03-20T09:45:39.081Z,722.00
2023-03-20T09:46:39.116Z,724.00
2023-03-20T09:47:39.090Z,723.00
2023-03-20T09:48:39.074Z,722.00
2023-03-20T09:49:39.064Z,722.00
2023-03-20T09:50:39.067Z,723.00
2023-03-20T09:51:39.057Z,725.00
2023-03-20T09:52:39.065Z,726.00
2023-03-20T09:53:39.089Z,729.00
2023-03-20T09:54:53.234Z,726.00
2023-03-20T09:55:40.337Z,722.00
2023-03-20T09:56:39.063Z,723.00
2023-03-20T09:57:39.088Z,725.00
2023-03-20T09:58:39.081Z,722.00
2023-03-20T09:59:39.208Z,721.00
2023-03-20T10:00:39.064Z,723.00
2023-03-20T10:01:39.826Z,725.00
2023-03-20T10:02:39.062Z,728.00
2023-03-20T10:03:39.060Z,730.00
2023-03-20T10:04:39.124Z,733.00
2023-03-20T10:05:39.043Z,732.00
2023-03-20T10:06:39.045Z,731.00
2023-03-20T10:07:39.036Z,731.00
2023-03-20T10:08:39.033Z,728.00
2023-03-20T10:09:40.030Z,727.00
2023-03-20T10:10:39.738Z,725.00
2023-03-20T10:11:39.035Z,724.00
2023-03-20T10:12:39.051Z,722.00
2023-03-20T10:13:39.034Z,720.00
2023-03-20T10:14:39.028Z,721.00
2023-03-20T10:15:39.079Z,722.00
2023-03-20T10:16:39.053Z,718.00
2023-03-20T10:17:39.016Z,715.00
2023-03-20T10:18:39.007Z,715.00
2023-03-20T10:19:39.006Z,712.00
2023-03-20T10:20:39.162Z,712.00
2023-03-20T10:21:39.056Z,714.00
2023-03-20T10:22:38.993Z,715.00
2023-03-20T10:23:38.995Z,714.00
2023-03-20T10:24:39.982Z,712.00
2023-03-20T10:25:40.075Z,711.00
2023-03-20T10:26:38.983Z,710.00
2023-03-20T10:27:38.980Z,712.00
2023-03-20T10:28:38.967Z,711.00
2023-03-20T10:29:38.971Z,708.00
2023-03-20T10:30:39.103Z,705.00
2023-03-20T10:31:39.059Z,707.00
2023-03-20T10:32:39.060Z,706.00
2023-03-20T10:33:38.963Z,706.00
2023-03-20T10:34:38.985Z,707.00
2023-03-20T10:35:39.760Z,709.00
2023-03-20T10:36:38.969Z,711.00
2023-03-20T10:37:39.033Z,713.00
2023-03-20T10:38:38.999Z,710.00
2023-03-20T10:39:38.987Z,710.00
2023-03-20T10:40:39.084Z,711.00
2023-03-20T10:41:39.818Z,712.00
2023-03-20T10:42:39.828Z,711.00
2023-03-20T10:43:41.646Z,708.00
2023-03-20T10:44:39.079Z,705.00
2023-03-20T10:45:39.002Z,702.00
2023-03-20T10:46:39.897Z,703.00
2023-03-20T10:47:39.857Z,705.00
2023-03-20T10:48:38.990Z,705.00
2023-03-20T10:49:39.034Z,705.00
2023-03-20T10:50:38.992Z,703.00
2023-03-20T10:51:38.994Z,706.00
2023-03-20T10:52:38.993Z,706.00
2023-03-20T10:53:38.999Z,705.00
2023-03-20T10:54:39.332Z,703.00
2023-03-20T10:55:38.994Z,700.00
2023-03-20T10:56:38.991Z,701.00
2023-03-20T10:57:38.999Z,700.00
2023-03-20T10:58:39.061Z,701.00
2023-03-20T10:59:39.084Z,700.00
2023-03-20T11:00:39.028Z,696.00
2023-03-20T11:01:39.001Z,695.00
2023-03-20T11:02:38.992Z,695.00
2023-03-20T11:03:39.008Z,695.00
2023-03-20T11:04:38.986Z,696.00
2023-03-20T11:05:38.988Z,691.00
2023-03-20T11:06:38.978Z,693.00
2023-03-20T11:07:38.985Z,695.00
2023-03-20T11:08:38.993Z,697.00
2023-03-20T11:09:39.001Z,699.00
2023-03-20T11:10:39.016Z,696.00
2023-03-20T11:11:38.989Z,693.00
2023-03-20T11:12:39.023Z,691.00
2023-03-20T11:13:39.016Z,694.00
2023-03-20T11:14:39.119Z,694.00
2023-03-20T11:15:39.006Z,691.00
2023-03-20T11:16:39.147Z,688.00
2023-03-20T11:17:39.007Z,690.00
2023-03-20T11:18:39.060Z,694.00
2023-03-20T11:19:39.008Z,692.00
2023-03-20T11:20:39.003Z,689.00
2023-03-20T11:21:39.007Z,689.00
2023-03-20T11:22:39.083Z,687.00
2023-03-20T11:23:39.012Z,687.00
2023-03-20T11:24:39.002Z,688.00
2023-03-20T11:25:39.166Z,687.00
2023-03-20T11:26:38.996Z,687.00
2023-03-20T11:27:39.006Z,687.00
2023-03-20T11:28:39.038Z,688.00
2023-03-20T11:29:39.015Z,689.00
2023-03-20T11:30:39.040Z,689.00
2023-03-20T11:31:39.019Z,688.00
2023-03-20T11:32:39.004Z,688.00
2023-03-20T11:33:38.995Z,690.00
2023-03-20T11:34:38.986Z,691.00
2023-03-20T11:35:39.027Z,691.00
2023-03-20T11:36:38.983Z,690.00
2023-03-20T11:37:39.002Z,687.00
2023-03-20T11:38:38.974Z,685.00
2023-03-20T11:39:38.971Z,686.00
2023-03-20T11:40:38.970Z,684.00
2023-03-20T11:41:40.753Z,681.00
2023-03-20T11:42:39.349Z,684.00
2023-03-20T11:43:39.850Z,684.00
2023-03-20T11:44:38.953Z,682.00
2023-03-20T11:45:39.030Z,681.00
2023-03-20T11:46:38.943Z,682.00
2023-03-20T11:47:39.355Z,684.00
2023-03-20T11:48:38.937Z,682.00
2023-03-20T11:49:38.920Z,681.00
2023-03-20T11:50:39.964Z,683.00
2023-03-20T11:51:38.907Z,683.00
2023-03-20T11:52:38.895Z,680.00
2023-03-20T11:53:38.884Z,677.00
2023-03-20T11:54:38.874Z,680.00
2023-03-20T11:55:38.872Z,678.00
2023-03-20T11:56:38.944Z,678.00
2023-03-20T11:57:38.936Z,677.00
2023-03-20T11:58:38.845Z,677.00
2023-03-20T11:59:38.841Z,676.00
2023-03-20T12:00:39.099Z,673.00
2023-03-20T12:01:38.820Z,675.00
2023-03-20T12:02:39.006Z,674.00
2023-03-20T12:03:38.846Z,674.00
2023-03-20T12:04:38.801Z,676.00
2023-03-20T12:05:38.840Z,676.00
2023-03-20T12:06:38.793Z,676.00
2023-03-20T12:07:38.843Z,677.00
2023-03-20T12:08:38.785Z,678.00
2023-03-20T12:09:38.780Z,676.00
2023-03-20T12:10:38.870Z,676.00
2023-03-20T12:11:38.778Z,673.00
2023-03-20T12:12:38.780Z,677.00
2023-03-20T12:13:38.777Z,676.00
2023-03-20T12:14:38.767Z,674.00
2023-03-20T12:15:38.798Z,671.00
2023-03-20T12:16:38.750Z,669.00
2023-03-20T12:17:38.968Z,670.00
2023-03-20T12:18:38.742Z,670.00
2023-03-20T12:19:38.736Z,671.00
2023-03-20T12:20:38.990Z,672.00
2023-03-20T12:21:38.722Z,672.00
2023-03-20T12:22:38.710Z,671.00
2023-03-20T12:23:38.701Z,667.00
2023-03-20T12:24:38.721Z,669.00
2023-03-20T12:25:38.686Z,668.00
2023-03-20T12:26:38.678Z,666.00
2023-03-20T12:27:38.669Z,663.00
2023-03-20T12:28:38.669Z,662.00
2023-03-20T12:32:38.674Z,663.00
2023-03-20T12:33:38.611Z,663.00
2023-03-20T12:34:38.603Z,662.00
2023-03-20T12:35:38.673Z,662.00
2023-03-20T12:36:38.588Z,659.00
2023-03-20T12:37:38.579Z,657.00
2023-03-20T12:38:38.570Z,657.00
2023-03-20T12:39:38.592Z,659.00
2023-03-20T12:40:38.593Z,658.00
2023-03-20T12:41:38.538Z,657.00
2023-03-20T12:42:38.539Z,655.00
2023-03-20T12:43:38.528Z,656.00
2023-03-20T12:44:38.532Z,656.00
2023-03-20T12:45:38.503Z,654.00
2023-03-20T12:46:38.629Z,652.00
2023-03-20T12:47:38.490Z,651.00
2023-03-20T12:48:38.493Z,654.00
2023-03-20T12:49:39.370Z,657.00
2023-03-20T12:50:38.711Z,659.00
2023-03-20T12:51:38.544Z,659.00
2023-03-20T12:52:38.557Z,657.00
2023-03-20T12:53:38.465Z,658.00
2023-03-20T12:54:38.456Z,659.00
2023-03-20T12:55:38.458Z,662.00
2023-03-20T12:56:38.454Z,661.00
2023-03-20T12:57:38.491Z,660.00
2023-03-20T12:58:38.452Z,656.00
2023-03-20T12:59:38.432Z,656.00
2023-03-20T13:00:38.773Z,653.00
2023-03-20T13:01:38.461Z,653.00
2023-03-20T13:02:38.464Z,653.00
2023-03-20T13:03:39.422Z,652.00
2023-03-20T13:04:38.410Z,651.00
2023-03-20T13:05:38.415Z,650.00
2023-03-20T13:06:38.429Z,652.00
2023-03-20T13:07:38.421Z,651.00
2023-03-20T13:08:39.379Z,649.00
2023-03-20T13:09:38.445Z,649.00
2023-03-20T13:10:38.762Z,646.00
2023-03-20T13:11:38.458Z,644.00
2023-03-20T13:12:38.482Z,644.00
2023-03-20T13:13:38.586Z,646.00
2023-03-20T13:14:38.532Z,646.00
2023-03-20T13:15:38.536Z,645.00
2023-03-20T13:16:38.677Z,643.00
2023-03-20T13:17:38.553Z,642.00
2023-03-20T13:18:38.563Z,645.00
2023-03-20T13:19:38.558Z,645.00
2023-03-20T13:20:38.796Z,646.00
2023-03-20T13:21:38.674Z,646.00
2023-03-20T13:22:38.673Z,645.00
2023-03-20T13:23:38.693Z,644.00
2023-03-20T13:24:38.721Z,644.00
2023-03-20T13:25:38.770Z,641.00
2023-03-20T13:26:38.839Z,640.00
2023-03-20T13:27:38.837Z,642.00
2023-03-20T13:28:38.870Z,642.00
2023-03-20T13:29:38.911Z,640.00
2023-03-20T13:30:39.088Z,637.00
2023-03-20T13:31:38.950Z,638.00
2023-03-20T13:32:39.088Z,639.00
2023-03-20T13:33:38.974Z,637.00
2023-03-20T13:34:38.973Z,635.00
2023-03-20T13:35:39.013Z,636.00
2023-03-20T13:36:38.998Z,637.00
2023-03-20T13:37:39.025Z,641.00
2023-03-20T13:38:39.020Z,641.00
2023-03-20T13:39:39.022Z,639.00
2023-03-20T13:40:39.381Z,636.00
2023-03-20T13:41:39.061Z,634.00
2023-03-20T13:42:39.058Z,632.00
2023-03-20T13:43:39.093Z,635.00
2023-03-20T13:44:39.087Z,635.00
2023-03-20T13:45:39.085Z,635.00
2023-03-20T13:46:39.190Z,635.00
2023-03-20T13:47:39.064Z,637.00
2023-03-20T13:48:39.079Z,635.00
2023-03-20T13:49:39.139Z,635.00
2023-03-20T13:50:39.292Z,634.00
2023-03-20T13:51:39.088Z,634.00
2023-03-20T14:08:39.132Z,625.00
2023-03-20T14:09:39.108Z,624.00
2023-03-20T14:10:39.602Z,621.00
2023-03-20T14:11:39.157Z,620.00
2023-03-20T14:12:39.184Z,623.00
2023-03-20T14:13:39.202Z,621.00
2023-03-20T14:14:39.188Z,621.00
2023-03-20T14:15:39.210Z,624.00
2023-03-20T14:16:39.205Z,623.00
2023-03-20T14:17:39.205Z,622.00
2023-03-20T14:18:39.213Z,621.00
2023-03-20T14:19:39.255Z,624.00
2023-03-20T14:20:39.278Z,628.00
2023-03-20T14:21:39.272Z,629.00
2023-03-20T14:22:39.297Z,627.00
2023-03-20T14:23:39.283Z,630.00
2023-03-20T14:24:39.280Z,629.00
2023-03-20T14:25:40.524Z,628.00
2023-03-20T14:26:39.296Z,625.00
2023-03-20T14:27:44.727Z,661.00
2023-03-20T15:02:55.914Z,687.00
2023-03-20T15:06:55.783Z,690.00
2023-03-20T15:10:55.684Z,680.00
2023-03-20T15:14:55.539Z,681.00
2023-03-20T15:18:55.427Z,681.00
2023-03-20T15:22:57.716Z,677.00
2023-03-20T15:26:55.466Z,672.00
2023-03-20T15:30:55.497Z,677.00
2023-03-20T15:34:55.499Z,671.00
2023-03-20T15:38:55.535Z,678.00
2023-03-20T15:42:55.585Z,678.00
2023-03-20T15:46:55.662Z,672.00
2023-03-20T15:50:55.707Z,675.00
2023-03-20T15:54:55.766Z,676.00
2023-03-20T15:58:55.845Z,669.00
2023-03-20T16:02:55.921Z,667.00
2023-03-20T16:06:55.992Z,667.00
2023-03-20T16:10:56.090Z,661.00
2023-03-20T16:14:56.170Z,662.00
2023-03-20T16:18:59.136Z,664.00
2023-03-20T16:22:56.195Z,663.00
2023-03-20T16:26:56.112Z,664.00
2023-03-20T16:30:56.026Z,664.00
2023-03-20T16:34:55.937Z,666.00
2023-03-20T16:38:55.843Z,667.00
2023-03-20T16:42:55.783Z,664.00
2023-03-20T16:46:55.696Z,662.00
2023-03-20T16:50:56.021Z,660.00
2023-03-20T16:54:55.505Z,660.00
2023-03-20T16:58:56.839Z,657.00
2023-03-20T17:02:55.338Z,658.00
2023-03-20T17:06:55.561Z,657.00
2023-03-20T17:10:55.449Z,667.00
2023-03-20T17:14:55.383Z,662.00
2023-03-20T17:18:55.298Z,668.00
2023-03-20T17:22:55.278Z,667.00
2023-03-20T17:26:55.152Z,666.00
2023-03-20T17:30:55.138Z,667.00
2023-03-20T17:34:54.969Z,660.00
2023-03-20T17:38:54.903Z,662.00
2023-03-20T17:42:54.786Z,665.00
2023-03-20T17:46:58.721Z,662.00
2023-03-20T17:50:54.697Z,662.00
2023-03-20T17:54:54.605Z,663.00
2023-03-20T17:58:54.683Z,661.00
2023-03-20T18:02:54.411Z,666.00
2023-03-20T18:06:54.434Z,666.00
2023-03-20T18:10:54.337Z,665.00
2023-03-20T18:14:54.232Z,667.00
2023-03-20T18:18:54.147Z,665.00
2023-03-20T18:22:54.052Z,666.00
2023-03-20T18:26:53.946Z,674.00
2023-03-20T18:30:53.880Z,665.00
2023-03-20T18:34:53.750Z,666.00
2023-03-20T18:38:53.649Z,666.00
2023-03-20T18:42:53.537Z,667.00
2023-03-20T18:46:53.451Z,670.00
2023-03-20T18:50:53.577Z,664.00
2023-03-20T18:54:53.462Z,668.00
2023-03-20T18:58:53.369Z,667.00
2023-03-20T19:02:53.272Z,670.00
2023-03-20T19:06:53.160Z,667.00
2023-03-20T19:10:53.075Z,655.00
2023-03-20T19:14:53.016Z,657.00
2023-03-20T19:18:53.183Z,653.00
2023-03-20T19:22:52.789Z,654.00
2023-03-20T19:26:52.776Z,653.00
2023-03-20T19:30:52.620Z,649.00
2023-03-20T19:35:40.905Z,651.00
2023-03-20T19:38:53.581Z,659.00
2023-03-20T19:43:02.133Z,659.00
2023-03-20T19:46:53.400Z,659.00
2023-03-20T19:50:52.316Z,667.00
2023-03-20T19:55:02.258Z,676.00
2023-03-20T19:58:53.388Z,675.00
2023-03-20T20:02:52.444Z,676.00
2023-03-20T20:06:55.481Z,675.00
2023-03-20T20:10:52.293Z,671.00
2023-03-20T20:14:52.184Z,671.00
2023-03-20T20:18:52.277Z,677.00
2023-03-20T20:22:52.178Z,679.00
2023-03-20T20:27:03.068Z,685.00
2023-03-20T20:30:52.957Z,681.00
2023-03-20T20:35:39.830Z,675.00
2023-03-20T20:38:53.120Z,683.00
2023-03-20T20:42:51.599Z,677.00
2023-03-20T20:46:51.684Z,676.00
2023-03-20T20:50:51.758Z,680.00
2023-03-20T20:54:51.837Z,676.00
2023-03-20T20:58:51.934Z,678.00
2023-03-20T21:02:52.084Z,678.00
2023-03-20T21:07:10.682Z,682.00
2023-03-20T21:10:53.054Z,673.00
2023-03-20T21:14:51.904Z,674.00
2023-03-20T21:18:52.025Z,665.00
2023-03-20T21:22:52.688Z,662.00
2023-03-20T21:26:52.247Z,665.00
2023-03-20T21:31:20.534Z,665.00
2023-03-20T21:34:53.290Z,665.00
2023-03-20T21:39:09.302Z,665.00
2023-03-20T21:42:53.087Z,666.00
2023-03-20T21:47:35.628Z,671.00
2023-03-20T21:51:42.358Z,672.00
2023-03-20T22:02:55.392Z,664.00
2023-03-20T22:15:29.281Z,656.00
2023-03-20T22:19:43.439Z,657.00
2023-03-20T22:27:43.590Z,659.00
2023-03-20T22:35:43.948Z,657.00
2023-03-20T22:43:27.374Z,663.00
2023-03-20T22:46:51.568Z,663.00
2023-03-20T22:50:50.462Z,667.00
2023-03-20T22:54:50.380Z,667.00
2023-03-20T22:58:50.336Z,659.00
2023-03-20T23:02:51.418Z,654.00
2023-03-20T23:06:50.158Z,661.00
2023-03-20T23:10:50.077Z,658.00
2023-03-20T23:14:49.988Z,658.00
2023-03-20T23:18:49.912Z,655.00
2023-03-20T23:22:49.828Z,655.00
2023-03-20T23:26:49.755Z,658.00
2023-03-20T23:30:59.836Z,659.00
2023-03-20T23:34:50.587Z,658.00
2023-03-20T23:38:49.514Z,657.00
2023-03-20T23:42:49.668Z,659.00
2023-03-20T23:46:49.812Z,652.00
2023-03-20T23:50:53.337Z,653.00
2023-03-20T23:54:50.712Z,653.00
2023-03-20T23:58:59.438Z,650.00
